Canton, Minnesota
Current Conditions -  °F | °C
As of 1:35 AM on Sunday 23 Nov 2014 (Local Time) from KFKA Reporting Station
Haze Haze  
Wind Chill: 42°   Ceiling: 500
Heat Index: 48°   Visibility: 5mi
Dew Point: 47°   Wind: 17mph
Humidity: 96%   Direction: 190°S
Pressure: 29.56"   Gusts: NA
Location:  43.53°N, 91.93°W
Report Text: KFKA 230735Z AUTO 19015KT 5SM BR OVC005 09/09 A2956 RMK AO2 T00910085
Loading
Personal Weather Stations






























Interactive Weather Map New forecast layout! Learn more

10-Day Weather Forecast

Advertisements
Track Severe Weather on mobile